createdAt,value
2022-09-16T00:00:08.005Z,11.53
2022-09-16T00:01:08.223Z,11.54
2022-09-16T00:02:07.994Z,11.48
2022-09-16T00:03:07.937Z,11.48
2022-09-16T00:04:07.932Z,11.60
2022-09-16T00:05:07.911Z,11.66
2022-09-16T00:06:07.914Z,11.57
2022-09-16T00:07:07.956Z,11.64
2022-09-16T00:08:07.881Z,11.62
2022-09-16T00:09:07.869Z,11.63
2022-09-16T00:10:07.856Z,11.66
2022-09-16T00:11:07.857Z,11.64
2022-09-16T00:12:07.834Z,11.69
2022-09-16T00:13:07.857Z,11.64
2022-09-16T00:14:07.828Z,11.74
2022-09-16T00:15:07.832Z,11.69
2022-09-16T00:16:07.881Z,11.75
2022-09-16T00:17:07.781Z,11.63
2022-09-16T00:18:07.783Z,11.62
2022-09-16T00:19:07.808Z,11.66
2022-09-16T00:20:07.756Z,11.67
2022-09-16T00:21:07.740Z,11.72
2022-09-16T00:22:07.729Z,11.67
2022-09-16T00:23:07.712Z,11.75
2022-09-16T00:24:07.706Z,11.69
2022-09-16T00:25:07.734Z,11.78
2022-09-16T00:26:07.682Z,11.77
2022-09-16T00:27:07.673Z,11.78
2022-09-16T00:28:07.672Z,11.69
2022-09-16T00:29:07.679Z,11.66
2022-09-16T00:30:07.637Z,11.72
2022-09-16T00:31:07.728Z,11.77
2022-09-16T00:32:07.617Z,11.75
2022-09-16T00:33:07.615Z,11.79
2022-09-16T00:34:07.594Z,11.84
2022-09-16T00:35:07.585Z,11.72
2022-09-16T00:36:07.577Z,11.75
2022-09-16T00:37:07.637Z,11.72
2022-09-16T00:38:07.565Z,11.78
2022-09-16T00:39:07.546Z,11.64
2022-09-16T00:40:07.633Z,11.77
2022-09-16T00:41:07.520Z,11.64
2022-09-16T00:42:07.509Z,11.67
2022-09-16T00:43:07.517Z,11.69
2022-09-16T00:44:07.485Z,11.59
2022-09-16T00:45:07.507Z,11.49
2022-09-16T00:46:07.469Z,11.53
2022-09-16T00:47:07.521Z,11.53
2022-09-16T00:48:07.449Z,11.56
2022-09-16T00:49:07.456Z,11.54
2022-09-16T00:50:07.423Z,11.48
2022-09-16T00:51:07.410Z,11.60
2022-09-16T00:52:07.396Z,11.54
2022-09-16T00:53:07.391Z,11.56
2022-09-16T00:54:07.388Z,11.69
2022-09-16T00:55:07.377Z,11.64
2022-09-16T00:56:07.358Z,11.67
2022-09-16T00:57:07.345Z,11.82
2022-09-16T00:58:07.332Z,11.78
2022-09-16T00:59:07.322Z,11.69
2022-09-16T01:00:07.327Z,11.72
2022-09-16T01:01:07.387Z,11.72
2022-09-16T01:02:07.368Z,11.66
2022-09-16T01:03:07.299Z,11.70
2022-09-16T01:04:07.270Z,11.60
2022-09-16T01:05:07.261Z,11.56
2022-09-16T01:06:07.245Z,11.56
2022-09-16T01:07:07.245Z,11.53
2022-09-16T01:08:07.225Z,11.59
2022-09-16T01:09:07.256Z,11.54
2022-09-16T01:10:07.214Z,11.75
2022-09-16T01:11:07.188Z,11.64
2022-09-16T01:12:07.223Z,11.60
2022-09-16T01:13:07.169Z,11.59
2022-09-16T01:14:07.171Z,11.53
2022-09-16T01:15:07.151Z,11.49
2022-09-16T01:16:07.253Z,11.57
2022-09-16T01:17:07.151Z,11.49
2022-09-16T01:18:07.140Z,11.66
2022-09-16T01:19:07.103Z,11.69
2022-09-16T01:20:07.105Z,11.70
2022-09-16T01:21:07.082Z,11.57
2022-09-16T01:22:07.067Z,11.64
2022-09-16T01:23:07.059Z,11.66
2022-09-16T01:24:07.057Z,11.59
2022-09-16T01:25:07.048Z,11.56
2022-09-16T01:26:07.045Z,11.53
2022-09-16T01:27:07.017Z,11.51
2022-09-16T01:28:07.007Z,11.46
2022-09-16T01:29:06.999Z,11.44
2022-09-16T01:30:07.009Z,11.54
2022-09-16T01:31:07.145Z,11.54
2022-09-16T01:32:06.960Z,11.48
2022-09-16T01:33:06.980Z,11.44
2022-09-16T01:34:06.944Z,11.49
2022-09-16T01:35:06.926Z,11.56
2022-09-16T01:36:06.930Z,11.51
2022-09-16T01:37:06.997Z,11.62
2022-09-16T01:38:06.897Z,11.56
2022-09-16T01:39:06.886Z,11.57
2022-09-16T01:40:06.910Z,11.53
2022-09-16T01:41:06.865Z,11.53
2022-09-16T01:42:06.853Z,11.51
2022-09-16T01:43:06.926Z,11.56
2022-09-16T01:44:06.828Z,11.57
2022-09-16T01:45:06.819Z,11.72
2022-09-16T01:46:06.848Z,11.59
2022-09-16T01:47:06.798Z,11.64
2022-09-16T01:48:06.789Z,11.60
2022-09-16T01:49:06.827Z,11.69
2022-09-16T01:50:06.773Z,11.62
2022-09-16T01:51:06.757Z,11.66
2022-09-16T01:52:06.767Z,11.54
2022-09-16T01:53:06.749Z,11.59
2022-09-16T01:54:06.720Z,11.49
2022-09-16T01:55:06.723Z,11.46
2022-09-16T01:56:06.712Z,11.42
2022-09-16T01:57:06.690Z,11.46
2022-09-16T01:58:06.691Z,11.54
2022-09-16T01:59:06.668Z,11.36
2022-09-16T02:00:06.657Z,11.44
2022-09-16T02:01:06.707Z,11.46
2022-09-16T02:02:06.780Z,11.41
2022-09-16T02:03:06.623Z,11.44
2022-09-16T02:04:06.644Z,11.45
2022-09-16T02:05:06.626Z,11.31
2022-09-16T02:06:06.597Z,11.54
2022-09-16T02:07:06.604Z,11.38
2022-09-16T02:08:06.570Z,11.57
2022-09-16T02:09:06.569Z,11.51
2022-09-16T02:10:06.548Z,11.53
2022-09-16T02:11:06.537Z,11.57
2022-09-16T02:12:06.526Z,11.42
2022-09-16T02:13:06.548Z,11.39
2022-09-16T02:14:06.509Z,11.39
2022-09-16T02:15:06.510Z,11.44
2022-09-16T02:16:06.582Z,11.49
2022-09-16T02:17:06.472Z,11.51
2022-09-16T02:18:06.460Z,11.44
2022-09-16T02:19:06.489Z,11.54
2022-09-16T02:20:06.444Z,11.59
2022-09-16T02:21:06.456Z,11.53
2022-09-16T02:22:06.430Z,11.59
2022-09-16T02:23:06.401Z,11.45
2022-09-16T02:24:06.393Z,11.49
2022-09-16T02:25:06.440Z,11.39
2022-09-16T02:26:06.371Z,11.51
2022-09-16T02:27:06.359Z,11.51
2022-09-16T02:28:06.358Z,11.48
2022-09-16T02:29:06.338Z,11.38
2022-09-16T02:30:06.328Z,11.38
2022-09-16T02:31:06.349Z,11.59
2022-09-16T02:32:06.304Z,11.54
2022-09-16T02:33:06.403Z,11.39
2022-09-16T02:34:06.312Z,11.30
2022-09-16T02:35:06.272Z,11.35
2022-09-16T02:36:06.263Z,11.38
2022-09-16T02:37:06.308Z,11.30
2022-09-16T02:38:06.234Z,11.45
2022-09-16T02:39:06.239Z,11.38
2022-09-16T02:40:06.411Z,11.26
2022-09-16T02:41:06.218Z,11.30
2022-09-16T02:42:06.194Z,11.27
2022-09-16T02:43:06.243Z,11.23
2022-09-16T02:44:06.180Z,11.38
2022-09-16T02:45:06.177Z,11.38
2022-09-16T02:46:06.282Z,11.27
2022-09-16T02:47:06.145Z,11.28
2022-09-16T02:48:06.129Z,11.38
2022-09-16T02:49:06.127Z,11.33
2022-09-16T02:50:06.110Z,11.33
2022-09-16T02:51:06.110Z,11.35
2022-09-16T02:52:06.115Z,11.35
2022-09-16T02:53:06.100Z,11.28
2022-09-16T02:54:06.060Z,11.30
2022-09-16T02:55:06.055Z,11.38
2022-09-16T02:56:06.048Z,11.42
2022-09-16T02:57:06.086Z,11.35
2022-09-16T02:58:06.018Z,11.30
2022-09-16T02:59:06.012Z,11.39
2022-09-16T03:00:05.997Z,11.42
2022-09-16T03:01:05.993Z,11.49
2022-09-16T03:02:06.046Z,11.44
2022-09-16T03:03:06.061Z,11.51
2022-09-16T03:04:05.955Z,11.56
2022-09-16T03:05:05.945Z,11.54
2022-09-16T03:06:05.934Z,11.48
2022-09-16T03:07:05.922Z,11.38
2022-09-16T03:08:05.925Z,11.46
2022-09-16T03:09:05.974Z,11.45
2022-09-16T03:10:05.892Z,11.54
2022-09-16T03:11:05.878Z,11.54
2022-09-16T03:12:05.867Z,11.54
2022-09-16T03:13:05.864Z,11.51
2022-09-16T03:14:05.859Z,11.62
2022-09-16T03:15:05.855Z,11.49
2022-09-16T03:16:05.884Z,11.46
2022-09-16T03:17:05.814Z,11.46
2022-09-16T03:18:05.805Z,11.38
2022-09-16T03:19:05.804Z,11.41
2022-09-16T03:20:05.783Z,11.38
2022-09-16T03:21:05.833Z,11.41
2022-09-16T03:22:05.757Z,11.38
2022-09-16T03:23:05.747Z,11.42
2022-09-16T03:24:05.738Z,11.27
2022-09-16T03:25:05.759Z,11.36
2022-09-16T03:26:05.720Z,11.28
2022-09-16T03:27:05.735Z,11.38
2022-09-16T03:28:05.693Z,11.36
2022-09-16T03:29:05.695Z,11.38
2022-09-16T03:30:05.684Z,11.48
2022-09-16T03:31:05.713Z,11.35
2022-09-16T03:32:05.647Z,11.30
2022-09-16T03:33:05.699Z,11.35
2022-09-16T03:34:05.626Z,11.35
2022-09-16T03:35:05.630Z,11.38
2022-09-16T03:36:05.609Z,11.31
2022-09-16T03:37:05.592Z,11.24
2022-09-16T03:38:05.582Z,11.30
2022-09-16T03:39:05.627Z,11.26
2022-09-16T03:40:05.661Z,11.23
2022-09-16T03:41:05.577Z,11.13
2022-09-16T03:42:05.538Z,11.23
2022-09-16T03:43:05.526Z,11.16
2022-09-16T03:44:05.519Z,11.16
2022-09-16T03:45:05.650Z,11.21
2022-09-16T03:46:05.551Z,11.20
2022-09-16T03:47:05.488Z,11.35
2022-09-16T03:48:05.473Z,11.16
2022-09-16T03:49:05.465Z,11.26
2022-09-16T03:50:05.451Z,11.21
2022-09-16T03:51:05.473Z,11.17
2022-09-16T03:52:05.428Z,11.23
2022-09-16T03:53:05.420Z,11.24
2022-09-16T03:54:05.410Z,11.19
2022-09-16T03:55:05.400Z,11.30
2022-09-16T03:56:05.386Z,11.26
2022-09-16T03:57:05.458Z,11.30
2022-09-16T03:58:05.361Z,11.35
2022-09-16T03:59:05.355Z,11.27
2022-09-16T04:00:05.345Z,11.36
2022-09-16T04:01:05.448Z,11.30
2022-09-16T04:02:05.320Z,11.23
2022-09-16T04:03:05.454Z,11.35
2022-09-16T04:04:05.297Z,11.26
2022-09-16T04:05:05.281Z,11.21
2022-09-16T04:06:05.271Z,11.28
2022-09-16T04:07:05.260Z,11.31
2022-09-16T04:08:05.264Z,11.28
2022-09-16T04:09:05.298Z,11.24
2022-09-16T04:10:05.241Z,11.17
2022-09-16T04:11:05.221Z,11.27
2022-09-16T04:12:05.210Z,11.16
2022-09-16T04:13:05.235Z,11.27
2022-09-16T04:14:05.184Z,11.21
2022-09-16T04:15:05.269Z,11.21
2022-09-16T04:16:05.297Z,11.28
2022-09-16T04:17:05.149Z,11.17
2022-09-16T04:18:05.198Z,11.23
2022-09-16T04:19:05.137Z,11.05
2022-09-16T04:20:05.118Z,11.11
2022-09-16T04:21:05.175Z,11.09
2022-09-16T04:22:05.096Z,11.20
2022-09-16T04:23:05.083Z,11.09
2022-09-16T04:24:07.499Z,11.21
2022-09-16T04:25:06.075Z,11.20
2022-09-16T04:26:05.050Z,11.21
2022-09-16T04:27:05.056Z,11.12
2022-09-16T04:28:05.031Z,11.13
2022-09-16T04:29:05.078Z,11.12
2022-09-16T04:30:05.007Z,11.24
2022-09-16T04:31:05.060Z,11.26
2022-09-16T04:32:04.982Z,11.16
2022-09-16T04:33:04.987Z,11.17
2022-09-16T04:34:04.969Z,11.09
2022-09-16T04:35:05.015Z,11.13
2022-09-16T04:36:04.943Z,11.11
2022-09-16T04:37:04.998Z,11.17
2022-09-16T04:38:04.916Z,11.12
2022-09-16T04:39:04.923Z,11.17
2022-09-16T04:40:05.374Z,11.12
2022-09-16T04:41:04.979Z,11.08
2022-09-16T04:42:04.985Z,11.03
2022-09-16T04:43:04.863Z,10.94
2022-09-16T04:44:04.853Z,11.02
2022-09-16T04:45:04.867Z,11.02
2022-09-16T04:46:04.915Z,11.12
2022-09-16T04:47:04.912Z,10.99
2022-09-16T04:48:04.821Z,11.02
2022-09-16T04:49:04.803Z,11.03
2022-09-16T04:50:04.789Z,11.01
2022-09-16T04:51:04.773Z,10.91
2022-09-16T04:52:04.762Z,10.99
2022-09-16T04:53:04.806Z,10.99
2022-09-16T04:54:04.747Z,10.98
2022-09-16T04:55:04.737Z,10.93
2022-09-16T04:56:04.718Z,10.86
2022-09-16T04:57:04.719Z,10.75
2022-09-16T04:58:04.700Z,10.84
2022-09-16T04:59:04.724Z,10.87
2022-09-16T05:00:04.674Z,10.91
2022-09-16T05:01:04.789Z,10.87
2022-09-16T05:02:04.668Z,10.84
2022-09-16T05:03:04.725Z,10.81
2022-09-16T05:04:04.629Z,10.81
2022-09-16T05:05:04.778Z,10.86
2022-09-16T05:06:04.613Z,10.86
2022-09-16T05:07:04.600Z,10.91
2022-09-16T05:08:04.605Z,10.87
2022-09-16T05:09:04.590Z,11.02
2022-09-16T05:10:04.567Z,10.94
2022-09-16T05:11:04.595Z,10.88
2022-09-16T05:12:04.542Z,10.93
2022-09-16T05:13:04.536Z,10.78
2022-09-16T05:14:04.523Z,10.88
2022-09-16T05:15:04.510Z,10.91
2022-09-16T05:16:04.577Z,10.87
2022-09-16T05:17:04.620Z,10.95
2022-09-16T05:18:04.541Z,10.91
2022-09-16T05:19:04.472Z,10.93
2022-09-16T05:20:04.454Z,10.86
2022-09-16T05:21:04.457Z,10.93
2022-09-16T05:22:04.443Z,10.90
2022-09-16T05:23:04.428Z,11.01
2022-09-16T05:24:04.489Z,10.95
2022-09-16T05:25:04.399Z,10.83
2022-09-16T05:26:04.388Z,10.81
2022-09-16T05:27:04.401Z,10.83
2022-09-16T05:28:04.377Z,10.81
2022-09-16T05:29:04.358Z,10.80
2022-09-16T05:30:04.365Z,10.91
2022-09-16T05:31:04.384Z,10.90
2022-09-16T05:32:04.322Z,10.90
2022-09-16T05:33:04.436Z,10.94
2022-09-16T05:34:04.406Z,10.93
2022-09-16T05:35:04.342Z,10.75
2022-09-16T05:36:04.301Z,10.98
2022-09-16T05:37:04.271Z,10.84
2022-09-16T05:38:04.257Z,10.88
2022-09-16T05:39:22.214Z,10.87
2022-09-16T05:40:05.275Z,10.86
2022-09-16T05:41:04.221Z,10.90
2022-09-16T05:42:04.281Z,10.83
2022-09-16T05:43:04.203Z,10.80
2022-09-16T05:44:04.213Z,10.87
2022-09-16T05:45:04.184Z,10.93
2022-09-16T05:46:04.358Z,10.84
2022-09-16T05:47:04.160Z,10.78
2022-09-16T05:48:04.212Z,10.69
2022-09-16T05:49:04.268Z,10.72
2022-09-16T05:50:04.123Z,10.72
2022-09-16T05:51:04.183Z,10.73
2022-09-16T05:52:04.215Z,10.72
2022-09-16T05:53:04.091Z,10.63
2022-09-16T05:54:04.139Z,10.75
2022-09-16T05:55:04.069Z,10.81
2022-09-16T05:56:04.060Z,10.81
2022-09-16T05:57:07.017Z,10.80
2022-09-16T05:58:04.046Z,10.94
2022-09-16T05:59:04.025Z,10.87
2022-09-16T06:00:04.228Z,10.84
2022-09-16T06:01:04.085Z,10.84
2022-09-16T06:02:04.163Z,10.94
2022-09-16T06:03:03.996Z,10.87
2022-09-16T06:04:03.972Z,10.95
2022-09-16T06:05:04.081Z,10.86
2022-09-16T06:06:03.956Z,10.90
2022-09-16T06:07:03.952Z,10.87
2022-09-16T06:08:04.016Z,11.01
2022-09-16T06:09:03.925Z,11.01
2022-09-16T06:10:03.905Z,11.06
2022-09-16T06:11:03.893Z,11.08
2022-09-16T06:12:03.881Z,11.03
2022-09-16T06:13:03.877Z,11.03
2022-09-16T06:14:03.973Z,10.93
2022-09-16T06:15:03.848Z,10.94
2022-09-16T06:16:03.863Z,11.02
2022-09-16T06:17:03.827Z,10.95
2022-09-16T06:18:06.446Z,10.91
2022-09-16T06:19:03.814Z,10.98
2022-09-16T06:20:03.814Z,10.94
2022-09-16T06:21:03.906Z,10.95
2022-09-16T06:22:03.768Z,10.81
2022-09-16T06:23:03.755Z,10.81
2022-09-16T06:24:03.756Z,10.86
2022-09-16T06:25:03.946Z,10.80
2022-09-16T06:26:03.777Z,10.91
2022-09-16T06:27:03.711Z,10.91
2022-09-16T06:28:03.699Z,11.02
2022-09-16T06:29:03.701Z,11.13
2022-09-16T06:30:03.674Z,11.16
2022-09-16T06:31:03.717Z,11.20
2022-09-16T06:32:03.705Z,11.31
2022-09-16T06:33:03.638Z,11.42
2022-09-16T06:34:03.631Z,11.64
2022-09-16T06:35:03.630Z,12.03
2022-09-16T06:36:03.608Z,12.43
2022-09-16T06:37:03.724Z,12.56
2022-09-16T06:38:03.640Z,12.59
2022-09-16T06:39:03.578Z,12.55
2022-09-16T06:40:03.618Z,12.40
2022-09-16T06:41:03.561Z,12.79
2022-09-16T06:42:03.547Z,12.84
2022-09-16T06:43:03.530Z,12.76
2022-09-16T06:44:03.535Z,12.94
2022-09-16T06:45:03.510Z,12.91
2022-09-16T06:46:03.527Z,12.96
2022-09-16T06:47:03.592Z,12.80
2022-09-16T06:48:03.479Z,12.89
2022-09-16T06:49:06.175Z,12.54
2022-09-16T06:50:03.512Z,12.16
2022-09-16T06:51:03.443Z,12.11
2022-09-16T06:52:03.434Z,12.11
2022-09-16T06:53:03.558Z,12.03
2022-09-16T06:54:03.418Z,12.11
2022-09-16T06:55:03.404Z,12.00
2022-09-16T06:56:03.468Z,11.81
2022-09-16T06:57:03.380Z,11.81
2022-09-16T06:58:03.367Z,11.87
2022-09-16T06:59:03.355Z,11.87
2022-09-16T07:00:03.348Z,11.87
2022-09-16T07:01:03.427Z,11.66
2022-09-16T07:02:03.435Z,11.62
2022-09-16T07:03:03.315Z,11.78
2022-09-16T07:04:03.307Z,11.96
2022-09-16T07:05:03.299Z,12.11
2022-09-16T07:06:03.283Z,12.03
2022-09-16T07:07:09.737Z,12.15
2022-09-16T07:08:04.334Z,12.15
2022-09-16T07:09:03.373Z,11.87
2022-09-16T07:10:03.234Z,11.98
2022-09-16T07:11:03.235Z,12.08
2022-09-16T07:12:03.216Z,12.19
2022-09-16T07:13:03.202Z,12.13
2022-09-16T07:14:03.208Z,12.29
2022-09-16T07:15:03.182Z,12.25
2022-09-16T07:16:12.920Z,12.37
2022-09-16T07:17:04.241Z,12.40
2022-09-16T07:18:03.153Z,12.66
2022-09-16T07:19:03.276Z,12.85
2022-09-16T07:20:03.140Z,12.94
2022-09-16T07:21:03.127Z,13.06
2022-09-16T07:22:03.108Z,13.04
2022-09-16T07:23:03.164Z,12.94
2022-09-16T07:24:03.080Z,12.98
2022-09-16T07:25:03.205Z,12.98
2022-09-16T07:26:03.119Z,12.99
2022-09-16T07:27:03.049Z,12.87
2022-09-16T07:28:03.038Z,12.76
2022-09-16T07:29:03.031Z,12.79
2022-09-16T07:30:08.205Z,12.81
2022-09-16T07:31:04.356Z,12.77
2022-09-16T07:32:03.012Z,13.13
2022-09-16T07:33:02.988Z,13.53
2022-09-16T07:34:04.715Z,13.43
2022-09-16T07:35:02.960Z,13.28
2022-09-16T07:36:02.966Z,13.09
2022-09-16T07:37:03.000Z,13.19
2022-09-16T07:38:02.934Z,13.32
2022-09-16T07:39:02.924Z,13.32
2022-09-16T07:40:02.999Z,13.47
2022-09-16T07:41:03.022Z,13.81
2022-09-16T07:42:06.079Z,13.75
2022-09-16T07:43:02.941Z,14.05
2022-09-16T07:44:02.868Z,14.09
2022-09-16T07:45:02.852Z,14.27
2022-09-16T07:46:03.158Z,14.24
2022-09-16T07:47:02.829Z,14.93
2022-09-16T07:48:02.821Z,14.69
2022-09-16T07:49:02.874Z,14.82
2022-09-16T07:50:02.806Z,14.86
2022-09-16T07:51:02.789Z,14.61
2022-09-16T07:52:02.774Z,15.05
2022-09-16T07:53:02.803Z,15.31
2022-09-16T07:54:02.752Z,15.55
2022-09-16T07:55:02.829Z,15.67
2022-09-16T07:56:02.735Z,15.46
2022-09-16T07:57:02.866Z,15.09
2022-09-16T07:58:02.710Z,15.04
2022-09-16T07:59:02.699Z,14.85
2022-09-16T08:00:02.688Z,14.86
2022-09-16T08:01:04.927Z,14.46
2022-09-16T08:02:02.871Z,14.52
2022-09-16T08:03:02.770Z,14.39
2022-09-16T08:04:02.642Z,14.27
2022-09-16T08:05:02.631Z,14.17
2022-09-16T08:06:02.833Z,14.17
2022-09-16T08:07:02.673Z,13.94
2022-09-16T08:08:02.599Z,13.87
2022-09-16T08:09:10.558Z,13.53
2022-09-16T08:10:03.577Z,13.32
2022-09-16T08:11:02.572Z,13.10
2022-09-16T08:12:02.557Z,13.51
2022-09-16T08:13:02.692Z,14.19
2022-09-16T08:14:02.535Z,14.57
2022-09-16T08:15:02.543Z,14.80
2022-09-16T08:16:02.516Z,15.03
2022-09-16T08:17:02.501Z,14.87
2022-09-16T08:18:02.502Z,14.54
2022-09-16T08:19:02.486Z,14.05
2022-09-16T08:20:02.466Z,13.57
2022-09-16T08:21:02.452Z,13.47
2022-09-16T08:22:02.446Z,13.50
2022-09-16T08:23:02.430Z,13.28
2022-09-16T08:24:02.439Z,13.22
2022-09-16T08:25:02.476Z,13.16
2022-09-16T08:26:02.416Z,13.41
2022-09-16T08:27:02.385Z,13.71
2022-09-16T08:28:02.378Z,13.75
2022-09-16T08:29:08.995Z,14.11
2022-09-16T08:30:03.372Z,14.29
2022-09-16T08:31:02.347Z,14.57
2022-09-16T08:32:02.429Z,14.31
2022-09-16T08:33:02.319Z,14.45
2022-09-16T08:34:02.315Z,15.23
2022-09-16T08:35:02.298Z,15.64
2022-09-16T08:36:02.284Z,15.40
2022-09-16T08:37:02.318Z,14.78
2022-09-16T08:38:02.263Z,14.63
2022-09-16T08:39:02.270Z,14.60
2022-09-16T08:40:02.369Z,14.66
2022-09-16T08:41:02.231Z,14.41
2022-09-16T08:42:02.220Z,14.01
2022-09-16T08:43:02.292Z,13.90
2022-09-16T08:44:02.203Z,14.19
2022-09-16T08:45:02.310Z,14.42
2022-09-16T08:46:02.230Z,14.63
2022-09-16T08:47:02.175Z,14.80
2022-09-16T08:48:02.154Z,14.93
2022-09-16T08:49:02.209Z,14.87
2022-09-16T08:50:02.141Z,14.98
2022-09-16T08:51:02.123Z,14.90
2022-09-16T08:52:02.155Z,15.03
2022-09-16T08:53:02.126Z,14.53
2022-09-16T08:54:02.106Z,14.95
2022-09-16T08:55:02.191Z,15.18
2022-09-16T08:56:02.156Z,14.80
2022-09-16T08:57:02.072Z,14.49
2022-09-16T08:58:02.119Z,14.08
2022-09-16T08:59:02.040Z,13.79
2022-09-16T09:00:02.229Z,13.41
2022-09-16T09:01:02.279Z,13.41
2022-09-16T09:02:08.186Z,13.38
2022-09-16T09:03:03.092Z,13.36
2022-09-16T09:04:02.012Z,13.09
2022-09-16T09:05:01.988Z,12.98
2022-09-16T09:06:02.007Z,12.87
2022-09-16T09:07:01.963Z,12.87
2022-09-16T09:08:01.964Z,12.99
2022-09-16T09:09:01.926Z,13.06
2022-09-16T09:10:02.345Z,13.03
2022-09-16T09:11:01.904Z,13.10
2022-09-16T09:12:01.964Z,13.19
2022-09-16T09:13:02.563Z,13.24
2022-09-16T09:14:02.028Z,13.17
2022-09-16T09:15:01.906Z,13.27
2022-09-16T09:16:01.893Z,13.80
2022-09-16T09:17:01.987Z,13.63
2022-09-16T09:18:01.862Z,13.44
2022-09-16T09:19:01.813Z,13.39
2022-09-16T09:20:01.835Z,13.50
2022-09-16T09:21:01.814Z,13.43
2022-09-16T09:22:01.799Z,13.13
2022-09-16T09:23:01.773Z,13.12
2022-09-16T09:24:01.822Z,13.10
2022-09-16T09:25:01.747Z,13.12
2022-09-16T09:26:01.750Z,12.95
2022-09-16T09:27:01.760Z,12.94
2022-09-16T09:28:01.745Z,12.94
2022-09-16T09:29:01.700Z,12.91
2022-09-16T09:30:01.743Z,13.01
2022-09-16T09:31:01.710Z,12.96
2022-09-16T09:32:01.743Z,13.06
2022-09-16T09:33:01.859Z,13.53
2022-09-16T09:34:01.690Z,13.32
2022-09-16T09:35:01.637Z,13.35
2022-09-16T09:36:01.698Z,13.13
2022-09-16T09:37:01.634Z,13.25
2022-09-16T09:38:01.606Z,13.43
2022-09-16T09:39:01.621Z,13.68
2022-09-16T09:40:01.675Z,13.87
2022-09-16T09:41:01.591Z,13.90
2022-09-16T09:42:01.570Z,13.73
2022-09-16T09:43:01.600Z,13.90
2022-09-16T09:44:01.589Z,13.98
2022-09-16T09:45:02.490Z,14.48
2022-09-16T09:46:01.616Z,14.20
2022-09-16T09:47:01.540Z,13.98
2022-09-16T09:48:01.596Z,13.83
2022-09-16T09:49:01.656Z,14.04
2022-09-16T09:50:01.471Z,14.60
2022-09-16T09:51:01.530Z,14.69
2022-09-16T09:52:01.484Z,14.42
2022-09-16T09:53:01.471Z,14.23
2022-09-16T09:54:01.489Z,13.98
2022-09-16T09:55:01.473Z,13.86
2022-09-16T09:56:01.438Z,13.90
2022-09-16T09:57:01.395Z,13.73
2022-09-16T09:58:01.399Z,13.62
2022-09-16T09:59:01.403Z,13.32
2022-09-16T10:00:01.452Z,13.22
2022-09-16T10:01:01.435Z,13.21
2022-09-16T10:02:01.469Z,13.25
2022-09-16T10:03:01.359Z,13.46
2022-09-16T10:04:01.314Z,13.43
2022-09-16T10:05:01.460Z,13.28
2022-09-16T10:06:01.300Z,13.16
2022-09-16T10:07:04.337Z,13.32
2022-09-16T10:08:01.276Z,13.35
2022-09-16T10:09:01.260Z,13.41
2022-09-16T10:10:01.360Z,13.50
2022-09-16T10:11:01.239Z,13.36
2022-09-16T10:12:01.282Z,13.32
2022-09-16T10:13:01.230Z,13.39
2022-09-16T10:14:01.235Z,13.21
2022-09-16T10:15:01.191Z,13.14
2022-09-16T10:16:01.217Z,13.12
2022-09-16T10:17:01.170Z,13.27
2022-09-16T10:18:01.224Z,13.38
2022-09-16T10:19:01.156Z,13.36
2022-09-16T10:20:01.138Z,13.39
2022-09-16T10:21:01.257Z,13.68
2022-09-16T10:22:01.127Z,13.39
2022-09-16T10:23:01.119Z,13.48
2022-09-16T10:24:01.090Z,13.46
2022-09-16T10:25:01.094Z,13.51
2022-09-16T10:26:01.079Z,13.51
2022-09-16T10:27:01.055Z,13.53
2022-09-16T10:28:01.052Z,13.66
2022-09-16T10:29:01.070Z,13.68
2022-09-16T10:30:01.032Z,13.98
2022-09-16T10:31:01.257Z,14.52
2022-09-16T10:32:01.142Z,15.12
2022-09-16T10:33:00.993Z,15.59
2022-09-16T10:34:00.989Z,15.98
2022-09-16T10:35:00.991Z,16.06
2022-09-16T10:36:00.964Z,15.77
2022-09-16T10:37:01.078Z,15.56
2022-09-16T10:38:00.950Z,15.66
2022-09-16T10:39:04.467Z,15.95
2022-09-16T10:40:01.029Z,16.01
2022-09-16T10:41:00.965Z,16.27
2022-09-16T10:42:00.893Z,15.93
2022-09-16T10:43:00.878Z,15.85
2022-09-16T10:44:00.872Z,16.14
2022-09-16T10:45:00.859Z,16.47
2022-09-16T10:46:00.931Z,15.92
2022-09-16T10:47:00.935Z,15.98
2022-09-16T10:48:03.468Z,15.98
2022-09-16T10:49:01.811Z,15.85
2022-09-16T10:50:00.802Z,15.71
2022-09-16T10:51:00.908Z,15.49
2022-09-16T10:52:00.782Z,15.93
2022-09-16T10:53:00.918Z,15.70
2022-09-16T10:54:00.762Z,15.53
2022-09-16T10:55:00.753Z,16.07
2022-09-16T10:56:00.739Z,16.45
2022-09-16T10:57:00.747Z,16.55
2022-09-16T10:58:00.717Z,16.65
2022-09-16T10:59:00.713Z,16.44
2022-09-16T11:00:00.698Z,15.99
2022-09-16T11:01:00.764Z,15.91
2022-09-16T11:02:01.023Z,15.68
2022-09-16T11:03:00.664Z,15.74
2022-09-16T11:04:00.652Z,15.70
2022-09-16T11:05:00.705Z,15.70
2022-09-16T11:06:00.639Z,15.76
2022-09-16T11:07:00.618Z,15.71
2022-09-16T11:08:00.606Z,15.77
2022-09-16T11:09:00.731Z,15.93
2022-09-16T11:10:00.587Z,15.86
2022-09-16T11:11:00.578Z,15.76
2022-09-16T11:12:00.580Z,15.64
2022-09-16T11:13:00.696Z,15.35
2022-09-16T11:14:00.541Z,15.34
2022-09-16T11:15:00.532Z,15.64
2022-09-16T11:16:00.567Z,15.68
2022-09-16T11:17:00.543Z,15.30
2022-09-16T11:18:00.500Z,14.75
2022-09-16T11:19:00.502Z,14.49
2022-09-16T11:20:00.478Z,14.54
2022-09-16T11:21:00.479Z,14.67
2022-09-16T11:22:00.453Z,15.30
2022-09-16T11:23:00.511Z,16.01
2022-09-16T11:24:00.448Z,16.67
2022-09-16T11:25:00.560Z,16.96
2022-09-16T11:26:00.420Z,16.72
2022-09-16T11:27:00.407Z,16.27
2022-09-16T11:28:00.388Z,16.08
2022-09-16T11:29:00.379Z,15.84
2022-09-16T11:30:00.393Z,15.43
2022-09-16T11:31:00.442Z,15.16
2022-09-16T11:32:00.361Z,15.09
2022-09-16T11:33:02.089Z,15.13
2022-09-16T11:34:01.394Z,15.07
2022-09-16T11:35:00.375Z,15.04
2022-09-16T11:36:00.301Z,14.79
2022-09-16T11:37:00.289Z,14.36
2022-09-16T11:38:00.280Z,14.30
2022-09-16T11:39:00.282Z,14.04
2022-09-16T11:40:00.409Z,13.96
2022-09-16T11:41:00.402Z,13.98
2022-09-16T11:42:00.248Z,13.91
2022-09-16T11:43:00.233Z,13.76
2022-09-16T11:44:00.226Z,13.55
2022-09-16T11:45:00.208Z,13.39
2022-09-16T11:46:00.189Z,13.41
2022-09-16T11:47:00.242Z,13.28
2022-09-16T11:48:00.179Z,13.16
2022-09-16T11:49:00.159Z,13.09
2022-09-16T11:50:00.175Z,12.95
2022-09-16T11:51:00.136Z,12.87
2022-09-16T11:52:00.132Z,12.77
2022-09-16T11:53:04.819Z,12.94
2022-09-16T11:54:01.802Z,13.01
2022-09-16T11:55:00.098Z,12.95
2022-09-16T11:56:00.158Z,12.70
2022-09-16T11:57:00.207Z,12.71
2022-09-16T11:58:00.075Z,12.67
2022-09-16T11:59:00.077Z,12.51
2022-09-16T12:00:00.060Z,12.36
2022-09-16T12:01:00.022Z,12.22
2022-09-16T12:02:00.138Z,12.40
2022-09-16T12:03:00.037Z,12.58
2022-09-16T12:04:00.000Z,12.51
2022-09-16T12:04:59.980Z,12.52
2022-09-16T12:05:59.990Z,12.49
2022-09-16T12:07:00.025Z,12.59
2022-09-16T12:07:59.944Z,12.77
2022-09-16T12:08:59.933Z,12.69
2022-09-16T12:09:59.956Z,12.67
2022-09-16T12:11:00.024Z,12.66
2022-09-16T12:11:59.903Z,12.63
2022-09-16T12:13:00.031Z,12.49
2022-09-16T12:14:05.669Z,12.56
2022-09-16T12:15:04.833Z,12.54
2022-09-16T12:15:59.871Z,12.55
2022-09-16T12:16:59.864Z,12.59
2022-09-16T12:17:59.840Z,12.52
2022-09-16T12:18:59.910Z,12.63
2022-09-16T12:19:59.814Z,12.58
2022-09-16T12:20:59.803Z,12.61
2022-09-16T12:21:59.802Z,12.51
2022-09-16T12:22:59.793Z,12.46
2022-09-16T12:23:59.823Z,12.44
2022-09-16T12:24:59.864Z,12.34
2022-09-16T12:25:59.754Z,12.30
2022-09-16T12:26:59.738Z,12.46
2022-09-16T12:27:59.729Z,12.52
2022-09-16T12:28:59.880Z,12.43
2022-09-16T12:29:59.705Z,12.40
2022-09-16T12:30:59.751Z,12.19
2022-09-16T12:31:59.694Z,12.26
2022-09-16T12:32:59.671Z,12.46
2022-09-16T12:33:59.663Z,12.48
2022-09-16T12:34:59.662Z,12.49
2022-09-16T12:35:59.643Z,12.59
2022-09-16T12:36:59.683Z,12.66
2022-09-16T12:37:59.616Z,12.69
2022-09-16T12:38:59.605Z,12.73
2022-09-16T12:39:59.671Z,12.73
2022-09-16T12:40:59.584Z,12.88
2022-09-16T12:41:59.575Z,12.79
2022-09-16T12:42:59.647Z,13.06
2022-09-16T12:44:06.449Z,13.13
2022-09-16T12:45:00.671Z,13.41
2022-09-16T12:45:59.618Z,13.63
2022-09-16T12:46:59.515Z,13.69
2022-09-16T12:47:59.505Z,13.51
2022-09-16T12:48:59.571Z,13.59
2022-09-16T12:49:59.487Z,13.63
2022-09-16T12:50:59.474Z,13.86
2022-09-16T12:51:59.460Z,13.29